Time;durP1;ratioP1;P1;durP2;ratioP2;P2;SDS_P1;SDS_P2;PMS_P1;PMS_P2;Temp;Humidity;BMP_temperature;BMP_pressure;BME280_temperature;BME280_humidity;BME280_pressure;Samples;Min_cycle;Max_cycle;Signal;HPM_P1;HPM_P2
2021/07/23 00:02:06;;;;;;;9.13;8.33;;;23.00;32.40;;;;;;10420905;28;20697;-74
2021/07/23 00:07:09;;;;;;;9.83;9.03;;;23.00;32.80;;;;;;10429596;28;20221;-74
2021/07/23 00:12:12;;;;;;;9.70;8.67;;;23.00;32.30;;;;;;10424619;28;20225;-74
2021/07/23 00:17:16;;;;;;;10.37;9.47;;;23.00;32.40;;;;;;10429680;28;20217;-74
2021/07/23 00:22:20;;;;;;;10.20;9.30;;;23.00;33.10;;;;;;10424132;28;20713;-74
2021/07/23 00:27:24;;;;;;;9.47;8.57;;;23.00;32.30;;;;;;10424878;28;20235;-74
2021/07/23 00:32:28;;;;;;;9.83;8.83;;;22.90;32.30;;;;;;10424275;28;20233;-74
2021/07/23 00:37:31;;;;;;;10.30;9.30;;;22.80;32.80;;;;;;10423293;28;20225;-74
2021/07/23 00:42:36;;;;;;;10.13;9.17;;;22.80;32.50;;;;;;10424996;28;20240;-74
2021/07/23 00:47:42;;;;;;;8.90;8.10;;;22.70;32.70;;;;;;10426748;28;20225;-75
2021/07/23 00:52:46;;;;;;;11.07;9.97;;;22.50;33.20;;;;;;10422364;28;20614;-74
2021/07/23 00:57:50;;;;;;;11.07;8.87;;;22.40;32.90;;;;;;10421295;28;20236;-74
2021/07/23 01:02:55;;;;;;;8.70;7.90;;;22.30;32.90;;;;;;10423238;28;20229;-74
2021/07/23 01:08:01;;;;;;;9.47;8.67;;;22.30;33.40;;;;;;10424431;28;20839;-74
2021/07/23 01:13:05;;;;;;;9.97;8.97;;;22.20;33.70;;;;;;10421918;28;20228;-74
2021/07/23 01:18:10;;;;;;;9.40;8.50;;;22.20;33.10;;;;;;10425961;28;20222;-74
2021/07/23 01:23:22;;;;;;;9.93;9.03;;;22.20;33.70;;;;;;10422479;28;20225;-74
2021/07/23 01:28:27;;;;;;;9.27;8.47;;;22.20;33.90;;;;;;10425584;28;20599;-74
2021/07/23 01:33:30;;;;;;;11.13;8.97;;;22.10;33.30;;;;;;10424108;28;20236;-74
2021/07/23 01:38:35;;;;;;;10.70;9.70;;;22.10;33.00;;;;;;10421978;28;20228;-74
2021/07/23 01:43:39;;;;;;;10.43;9.53;;;22.00;33.60;;;;;;10420588;28;20236;-74
2021/07/23 01:48:42;;;;;;;9.00;8.20;;;21.80;33.20;;;;;;10421183;28;20229;-74
2021/07/23 01:53:46;;;;;;;9.90;8.93;;;21.60;33.30;;;;;;10417126;28;20260;-74
2021/07/23 01:58:49;;;;;;;9.17;8.00;;;21.50;34.00;;;;;;10431182;28;20225;-74
2021/07/23 02:03:52;;;;;;;9.47;8.57;;;21.50;33.60;;;;;;10427804;28;20239;-74
2021/07/23 02:08:57;;;;;;;8.30;7.60;;;21.40;33.60;;;;;;10436631;28;20236;-74
2021/07/23 02:14:03;;;;;;;10.43;9.43;;;21.40;34.10;;;;;;10430193;28;20604;-74
2021/07/23 02:19:06;;;;;;;9.57;8.57;;;21.30;34.00;;;;;;10433610;28;20554;-74
2021/07/23 02:24:11;;;;;;;9.40;8.60;;;21.30;34.10;;;;;;10430783;28;20587;-74
2021/07/23 02:29:14;;;;;;;10.20;9.13;;;21.20;34.60;;;;;;10429030;28;20222;-73
2021/07/23 02:34:17;;;;;;;9.47;8.57;;;21.20;34.20;;;;;;10427157;28;20221;-74
2021/07/23 02:39:23;;;;;;;10.43;9.43;;;21.10;34.40;;;;;;10426604;28;20317;-74
2021/07/23 02:44:26;;;;;;;9.60;8.70;;;21.10;35.10;;;;;;10430325;28;20228;-74
2021/07/23 02:49:29;;;;;;;11.87;9.57;;;21.00;34.60;;;;;;10428304;28;20229;-74
2021/07/23 02:54:34;;;;;;;10.37;8.87;;;21.00;34.90;;;;;;10429170;28;20238;-74
2021/07/23 02:59:37;;;;;;;10.13;9.10;;;21.00;35.90;;;;;;10424511;28;20512;-74
2021/07/23 03:04:40;;;;;;;11.43;10.00;;;21.00;34.80;;;;;;10424856;28;20240;-74
2021/07/23 03:09:45;;;;;;;13.37;9.40;;;21.00;35.00;;;;;;10426267;28;20234;-74
2021/07/23 03:14:48;;;;;;;10.23;9.33;;;21.00;35.40;;;;;;10425281;28;20247;-74
2021/07/23 03:19:51;;;;;;;9.80;8.80;;;21.00;34.80;;;;;;10424758;28;20229;-74
2021/07/23 03:24:56;;;;;;;8.40;7.67;;;20.90;34.70;;;;;;10426578;28;20237;-74
2021/07/23 03:29:59;;;;;;;9.37;8.47;;;20.80;35.20;;;;;;10423870;28;20248;-74
2021/07/23 03:35:02;;;;;;;10.70;9.70;;;20.80;35.00;;;;;;10431945;28;20228;-74
2021/07/23 03:40:08;;;;;;;10.10;9.07;;;20.80;35.10;;;;;;10425822;28;20225;-74
2021/07/23 03:45:11;;;;;;;10.80;9.80;;;20.70;36.20;;;;;;10430532;28;20217;-74
2021/07/23 03:50:15;;;;;;;11.50;9.40;;;20.60;35.00;;;;;;10428652;28;20230;-74
2021/07/23 03:55:19;;;;;;;9.90;9.03;;;20.50;35.10;;;;;;10429894;28;20338;-74
2021/07/23 04:00:23;;;;;;;11.43;10.27;;;20.40;35.60;;;;;;10425195;28;20229;-74
2021/07/23 04:05:26;;;;;;;12.20;11.07;;;20.40;35.50;;;;;;10424786;28;20700;-74
2021/07/23 04:10:30;;;;;;;10.27;9.27;;;20.30;35.80;;;;;;10424321;28;20681;-74
2021/07/23 04:15:34;;;;;;;9.83;8.77;;;20.30;36.30;;;;;;10419751;28;20777;-74
2021/07/23 04:20:37;;;;;;;9.33;8.43;;;20.20;35.90;;;;;;10426241;28;20230;-74
2021/07/23 04:25:41;;;;;;;11.90;9.40;;;20.20;36.10;;;;;;10421401;28;20233;-74
2021/07/23 04:30:45;;;;;;;8.37;7.57;;;20.20;36.70;;;;;;10425902;28;20596;-74
2021/07/23 04:35:48;;;;;;;10.03;9.03;;;20.30;36.50;;;;;;10425426;28;20221;-74
2021/07/23 04:40:52;;;;;;;11.07;9.97;;;20.30;36.80;;;;;;10424799;28;20221;-74
2021/07/23 04:45:56;;;;;;;11.60;10.00;;;20.40;36.90;;;;;;10421461;28;20224;-74
2021/07/23 04:51:01;;;;;;;9.50;8.50;;;20.40;36.90;;;;;;10423394;28;20225;-74
2021/07/23 04:56:07;;;;;;;9.40;8.50;;;20.40;37.10;;;;;;10424975;28;20222;-74
2021/07/23 05:01:14;;;;;;;10.27;9.13;;;20.40;37.60;;;;;;10425033;28;20221;-74
2021/07/23 05:06:17;;;;;;;10.17;9.20;;;20.50;37.60;;;;;;10425370;28;20237;-74
2021/07/23 05:11:22;;;;;;;10.87;9.87;;;20.50;37.10;;;;;;10430108;28;20230;-74
2021/07/23 05:16:25;;;;;;;11.53;9.83;;;20.60;38.10;;;;;;10422511;28;20229;-74
2021/07/23 05:21:30;;;;;;;10.90;9.90;;;20.60;37.60;;;;;;10425804;28;20320;-74
2021/07/23 05:26:37;;;;;;;11.00;9.90;;;20.70;38.30;;;;;;10423243;28;20235;-73
2021/07/23 05:31:41;;;;;;;11.60;10.50;;;20.70;38.90;;;;;;10418543;28;20240;-74
2021/07/23 05:36:44;;;;;;;11.50;10.30;;;20.70;38.10;;;;;;10425425;28;20235;-74
2021/07/23 05:41:49;;;;;;;10.63;9.63;;;20.80;38.40;;;;;;10423510;28;20261;-74
2021/07/23 05:46:52;;;;;;;11.27;10.17;;;20.90;39.00;;;;;;10430313;28;20217;-74
2021/07/23 05:51:55;;;;;;;11.83;10.80;;;20.90;38.60;;;;;;10424650;28;20238;-74
2021/07/23 05:57:00;;;;;;;12.57;11.37;;;21.00;39.00;;;;;;10428150;28;20236;-74
2021/07/23 06:02:04;;;;;;;12.63;11.50;;;21.20;39.60;;;;;;10424199;28;20225;-74
2021/07/23 06:07:08;;;;;;;14.13;11.60;;;21.30;39.10;;;;;;10429378;28;20240;-74
2021/07/23 06:12:12;;;;;;;12.67;11.47;;;21.50;39.30;;;;;;10426268;28;20288;-73
2021/07/23 06:17:16;;;;;;;13.03;11.83;;;21.60;39.90;;;;;;10425823;28;20217;-74
2021/07/23 06:22:19;;;;;;;11.90;10.70;;;21.70;39.40;;;;;;10435346;28;20826;-73
2021/07/23 06:27:24;;;;;;;11.43;10.50;;;21.90;39.50;;;;;;10428440;28;20229;-74
2021/07/23 06:32:28;;;;;;;11.10;10.07;;;22.00;40.00;;;;;;10431759;28;20363;-74
2021/07/23 06:37:31;;;;;;;12.93;11.70;;;22.10;39.40;;;;;;10432912;28;20233;-74
2021/07/23 06:42:36;;;;;;;12.53;11.33;;;22.20;39.50;;;;;;10430146;28;20787;-74
2021/07/23 06:47:40;;;;;;;11.73;10.60;;;22.30;40.20;;;;;;10427158;28;20320;-74
2021/07/23 06:52:43;;;;;;;12.47;11.27;;;22.40;39.50;;;;;;10439729;28;20244;-75
2021/07/23 06:57:47;;;;;;;12.40;11.20;;;22.50;39.60;;;;;;10435890;28;20226;-74
2021/07/23 07:02:51;;;;;;;12.70;11.67;;;22.60;40.10;;;;;;10435688;28;20725;-75
2021/07/23 07:07:54;;;;;;;13.17;11.90;;;22.70;39.50;;;;;;10427009;28;20232;-73
2021/07/23 07:12:59;;;;;;;12.63;11.43;;;22.80;39.80;;;;;;10424011;28;20751;-73
2021/07/23 07:18:03;;;;;;;13.17;11.87;;;22.90;40.30;;;;;;10427138;28;20257;-75
2021/07/23 07:23:06;;;;;;;12.40;11.30;;;23.00;39.80;;;;;;10426025;28;20225;-74
2021/07/23 07:28:11;;;;;;;12.57;11.47;;;23.10;39.40;;;;;;10432847;28;20230;-74
2021/07/23 07:33:32;;;;;;;11.90;10.83;;;23.30;39.40;;;;;;10428392;28;20294;-74
2021/07/23 07:38:36;;;;;;;12.43;11.33;;;23.40;39.50;;;;;;10426000;28;20230;-73
2021/07/23 07:43:41;;;;;;;12.43;11.23;;;23.60;39.70;;;;;;10429750;28;20247;-74
2021/07/23 07:48:45;;;;;;;12.27;11.07;;;23.80;39.80;;;;;;10426084;28;20949;-74
2021/07/23 07:53:48;;;;;;;11.90;10.73;;;23.90;39.20;;;;;;10428965;28;20232;-74
2021/07/23 07:58:53;;;;;;;11.37;10.27;;;24.10;39.40;;;;;;10425446;28;20237;-74
2021/07/23 08:03:56;;;;;;;11.83;10.63;;;24.30;39.10;;;;;;10428725;28;20720;-74
2021/07/23 08:09:04;;;;;;;12.37;10.77;;;24.50;38.70;;;;;;10426620;28;20225;-72
2021/07/23 08:14:09;;;;;;;11.63;10.63;;;24.70;38.70;;;;;;10445460;28;20223;-74
2021/07/23 08:19:12;;;;;;;12.00;10.80;;;24.90;38.90;;;;;;10439103;28;20225;-74
2021/07/23 08:24:15;;;;;;;11.50;10.37;;;25.10;38.70;;;;;;10448035;28;20220;-74
2021/07/23 08:29:20;;;;;;;10.93;9.83;;;25.40;38.40;;;;;;10432026;28;20218;-74
2021/07/23 08:34:23;;;;;;;11.10;10.10;;;25.70;38.20;;;;;;10419858;28;20569;-75
2021/07/23 08:39:29;;;;;;;11.07;10.07;;;26.00;38.10;;;;;;10432157;28;20225;-75
2021/07/23 08:44:34;;;;;;;11.43;10.33;;;26.30;37.80;;;;;;10424963;28;20230;-74
2021/07/23 08:49:37;;;;;;;11.50;10.40;;;26.50;37.30;;;;;;10426376;28;20230;-75
2021/07/23 08:54:40;;;;;;;10.93;10.03;;;26.80;37.20;;;;;;10427699;28;20731;-75
2021/07/23 08:59:45;;;;;;;12.10;9.93;;;27.10;36.90;;;;;;10435000;28;20716;-74
2021/07/23 09:04:48;;;;;;;11.17;10.10;;;27.40;36.00;;;;;;10428452;28;20240;-74
2021/07/23 09:09:55;;;;;;;11.43;10.40;;;27.60;36.20;;;;;;10432923;28;20940;-75
2021/07/23 09:15:15;;;;;;;10.07;8.90;;;27.80;35.60;;;;;;10430016;28;20233;-75
2021/07/23 09:20:23;;;;;;;11.43;9.00;;;28.00;33.90;;;;;;10436905;28;20217;-75
2021/07/23 09:25:37;;;;;;;9.40;8.50;;;28.30;32.40;;;;;;10420254;28;20231;-75
2021/07/23 09:30:43;;;;;;;9.97;9.07;;;28.50;32.10;;;;;;10427276;28;20244;-75
2021/07/23 09:35:54;;;;;;;9.37;8.57;;;28.70;31.80;;;;;;10417611;28;20234;-75
2021/07/23 09:40:57;;;;;;;9.33;8.47;;;29.00;30.90;;;;;;10423850;28;21010;-74
2021/07/23 09:46:24;;;;;;;8.90;7.97;;;29.20;31.00;;;;;;10423937;28;20599;-75
2021/07/23 09:51:27;;;;;;;9.80;8.90;;;29.40;31.20;;;;;;10422430;28;20241;-74
2021/07/23 09:56:31;;;;;;;9.00;8.20;;;29.50;30.50;;;;;;10425359;28;20233;-74
2021/07/23 10:01:42;;;;;;;9.30;8.50;;;29.70;30.50;;;;;;10429589;28;20229;-75
2021/07/23 10:06:52;;;;;;;9.10;8.30;;;29.90;29.30;;;;;;10420372;28;20232;-76
2021/07/23 10:11:58;;;;;;;9.37;8.47;;;30.10;29.30;;;;;;10426909;28;20565;-74
2021/07/23 10:17:04;;;;;;;10.33;9.33;;;30.40;28.60;;;;;;10427887;28;20327;-74
2021/07/23 10:22:11;;;;;;;9.30;8.47;;;30.50;27.80;;;;;;10424830;28;20221;-75
2021/07/23 10:27:15;;;;;;;9.00;8.10;;;30.60;28.40;;;;;;10432158;28;20222;-75
2021/07/23 10:32:33;;;;;;;8.83;8.03;;;30.70;28.40;;;;;;10426968;28;20589;-72
2021/07/23 10:37:53;;;;;;;9.20;8.50;;;30.90;28.10;;;;;;10434757;28;20648;-73
2021/07/23 10:42:56;;;;;;;9.13;8.43;;;31.00;27.80;;;;;;10428328;28;20217;-72
2021/07/23 10:48:01;;;;;;;9.80;8.83;;;31.20;27.80;;;;;;10429047;28;20240;-72
2021/07/23 10:53:35;;;;;;;12.37;8.60;;;31.20;26.30;;;;;;10429334;28;20235;-72
2021/07/23 10:58:39;;;;;;;9.50;8.70;;;31.30;26.50;;;;;;10425032;28;20693;-72
2021/07/23 11:04:01;;;;;;;9.27;8.57;;;31.30;26.70;;;;;;10431442;28;20244;-74
2021/07/23 11:09:07;;;;;;;9.73;8.83;;;31.40;25.90;;;;;;10436963;28;20221;-72
2021/07/23 11:14:18;;;;;;;9.20;8.40;;;31.50;26.40;;;;;;10423021;28;20232;-72
2021/07/23 11:19:24;;;;;;;9.97;8.67;;;31.50;25.00;;;;;;10430350;28;22444;-72
2021/07/23 11:24:35;;;;;;;9.60;8.73;;;31.60;24.90;;;;;;10432133;28;20228;-73
2021/07/23 11:29:41;;;;;;;9.37;8.57;;;31.50;24.50;;;;;;10425904;28;20233;-73
2021/07/23 11:34:47;;;;;;;9.63;8.83;;;31.50;25.00;;;;;;10433039;28;20235;-73
2021/07/23 11:39:51;;;;;;;10.33;9.43;;;31.50;25.10;;;;;;10428599;28;20249;-73
2021/07/23 11:44:56;;;;;;;9.87;8.97;;;31.60;24.70;;;;;;10429525;28;20234;-73
2021/07/23 11:50:03;;;;;;;10.73;8.77;;;31.60;24.90;;;;;;10430482;28;20324;-73
2021/07/23 11:55:08;;;;;;;10.13;9.23;;;31.60;24.10;;;;;;10428306;28;20303;-73
2021/07/23 12:00:22;;;;;;;9.97;9.10;;;31.70;24.20;;;;;;10432244;28;20228;-72
2021/07/23 12:05:27;;;;;;;10.90;9.80;;;31.70;24.30;;;;;;10426912;28;20720;-75
2021/07/23 12:10:32;;;;;;;10.37;9.43;;;31.70;23.50;;;;;;10432842;28;20264;-74
2021/07/23 12:15:43;;;;;;;9.73;8.87;;;31.60;23.70;;;;;;10422549;28;20718;-74
2021/07/23 12:20:48;;;;;;;10.03;9.23;;;31.60;23.50;;;;;;10428493;28;20230;-74
2021/07/23 12:25:52;;;;;;;10.03;9.13;;;31.60;23.90;;;;;;10428150;28;20229;-74
2021/07/23 12:30:56;;;;;;;10.60;9.60;;;31.70;23.80;;;;;;10433674;28;20225;-73
2021/07/23 12:36:22;;;;;;;9.70;8.90;;;31.80;23.50;;;;;;10428937;28;20245;-73
2021/07/23 12:41:26;;;;;;;10.40;9.30;;;31.70;23.30;;;;;;10423053;28;20240;-73
2021/07/23 12:46:32;;;;;;;9.33;8.60;;;31.70;23.50;;;;;;10426825;28;20221;-73
2021/07/23 12:51:37;;;;;;;10.00;9.03;;;31.70;22.70;;;;;;10424208;28;20600;-74
2021/07/23 12:56:43;;;;;;;9.70;8.90;;;31.80;22.20;;;;;;10427997;28;20235;-73
2021/07/23 13:01:46;;;;;;;9.97;9.07;;;31.70;22.50;;;;;;10421627;28;20739;-72
2021/07/23 13:06:51;;;;;;;10.90;9.60;;;31.60;22.80;;;;;;10422895;28;20229;-72
2021/07/23 13:11:54;;;;;;;9.80;8.90;;;31.60;22.60;;;;;;10419365;28;20609;-72
2021/07/23 13:16:59;;;;;;;9.87;8.97;;;31.70;22.60;;;;;;10424401;28;20716;-73
2021/07/23 13:22:04;;;;;;;9.53;8.73;;;31.80;22.30;;;;;;10427975;28;20225;-72
2021/07/23 13:27:07;;;;;;;9.30;8.60;;;31.90;21.50;;;;;;10431141;28;20221;-71
2021/07/23 13:32:10;;;;;;;10.07;9.17;;;31.80;22.00;;;;;;10426815;28;20220;-72
2021/07/23 13:37:22;;;;;;;9.93;9.03;;;31.70;22.00;;;;;;10425262;28;20225;-73
2021/07/23 13:42:28;;;;;;;9.40;8.60;;;31.70;21.10;;;;;;10435403;28;20253;-73
2021/07/23 13:47:32;;;;;;;9.43;8.70;;;31.80;21.70;;;;;;10428340;28;20591;-73
2021/07/23 13:52:37;;;;;;;9.87;8.90;;;31.90;21.80;;;;;;10423356;28;20736;-73
2021/07/23 13:57:41;;;;;;;9.57;8.80;;;31.90;20.90;;;;;;10429368;28;20233;-73
2021/07/23 14:02:50;;;;;;;9.47;8.67;;;31.90;21.30;;;;;;10433559;28;20343;-73
2021/07/23 14:07:59;;;;;;;9.70;8.83;;;31.90;22.10;;;;;;10434087;28;20259;-73
2021/07/23 14:13:02;;;;;;;9.90;9.00;;;31.90;21.10;;;;;;10431139;28;20583;-73
2021/07/23 14:18:05;;;;;;;9.07;8.27;;;32.00;21.70;;;;;;10437378;28;20225;-73
2021/07/23 14:23:10;;;;;;;9.20;8.40;;;32.10;21.50;;;;;;10431559;28;20217;-73
2021/07/23 14:28:13;;;;;;;9.83;8.83;;;32.10;21.00;;;;;;10429228;28;20248;-73
2021/07/23 14:33:16;;;;;;;10.33;9.23;;;32.10;20.70;;;;;;10429394;28;20234;-73
2021/07/23 14:38:20;;;;;;;10.17;9.27;;;32.10;20.70;;;;;;10430066;28;20230;-73
2021/07/23 14:43:23;;;;;;;9.60;8.80;;;32.10;20.10;;;;;;10426254;28;20251;-73
2021/07/23 14:48:27;;;;;;;9.40;8.60;;;32.00;20.50;;;;;;10426960;28;20225;-73
2021/07/23 14:53:31;;;;;;;9.80;9.00;;;32.10;20.60;;;;;;10426575;28;20590;-71
2021/07/23 14:58:35;;;;;;;9.40;8.60;;;32.10;20.30;;;;;;10432372;28;20240;-72
2021/07/23 15:03:38;;;;;;;8.60;7.90;;;32.30;20.20;;;;;;10429000;28;20800;-72
2021/07/23 15:08:43;;;;;;;8.57;7.87;;;32.40;20.30;;;;;;10427173;28;20321;-72
2021/07/23 15:13:46;;;;;;;9.10;8.30;;;32.50;19.70;;;;;;10426096;28;20232;-72
2021/07/23 15:18:51;;;;;;;9.10;8.40;;;32.50;19.50;;;;;;10431357;28;20300;-71
2021/07/23 15:23:56;;;;;;;9.70;8.80;;;32.60;19.50;;;;;;10425207;28;20732;-71
2021/07/23 15:28:59;;;;;;;9.40;8.40;;;32.60;18.80;;;;;;10428511;28;20598;-71
2021/07/23 15:34:03;;;;;;;9.20;8.40;;;32.50;19.20;;;;;;10429230;28;20221;-71
2021/07/23 15:39:09;;;;;;;9.03;8.23;;;32.50;19.30;;;;;;10429769;28;20217;-71
2021/07/23 15:44:12;;;;;;;9.37;8.57;;;32.60;18.80;;;;;;10425290;28;20719;-71
2021/07/23 15:49:21;;;;;;;8.77;8.07;;;32.60;19.10;;;;;;10422156;28;20304;-71
2021/07/23 15:54:26;;;;;;;9.60;8.80;;;32.60;19.20;;;;;;10428773;28;20234;-71
2021/07/23 15:59:29;;;;;;;9.73;8.83;;;32.70;18.60;;;;;;10426663;28;20230;-71
2021/07/23 16:04:32;;;;;;;9.50;8.60;;;32.70;18.80;;;;;;10421897;28;20239;-71
2021/07/23 16:09:37;;;;;;;9.40;8.60;;;32.70;18.60;;;;;;10427013;28;21169;-71
2021/07/23 16:14:40;;;;;;;8.80;8.07;;;32.70;18.50;;;;;;10420478;28;20229;-72
2021/07/23 16:19:43;;;;;;;9.40;8.60;;;32.80;18.80;;;;;;10427647;28;20244;-71
2021/07/23 16:24:48;;;;;;;9.57;8.57;;;32.90;18.70;;;;;;10426879;28;20225;-71
2021/07/23 16:29:51;;;;;;;9.40;8.50;;;32.90;18.50;;;;;;10423977;28;20717;-71
2021/07/23 16:34:54;;;;;;;8.80;8.10;;;32.90;18.60;;;;;;10452322;28;20233;-71
2021/07/23 16:39:59;;;;;;;9.43;8.60;;;32.90;18.50;;;;;;10452500;28;20320;-71
2021/07/23 16:45:03;;;;;;;8.87;8.13;;;33.00;18.10;;;;;;10463119;28;20699;-71
2021/07/23 16:50:07;;;;;;;8.70;8.00;;;33.00;18.60;;;;;;10465414;28;20232;-71
2021/07/23 16:55:13;;;;;;;8.53;7.77;;;33.10;18.70;;;;;;10451856;28;20233;-71
2021/07/23 17:00:17;;;;;;;8.63;7.93;;;33.10;18.10;;;;;;10451316;28;20232;-71
2021/07/23 17:05:20;;;;;;;9.13;8.33;;;33.10;18.40;;;;;;10451010;28;20233;-71
2021/07/23 17:10:25;;;;;;;10.40;8.77;;;33.10;18.10;;;;;;10450368;28;20232;-71
2021/07/23 17:15:28;;;;;;;8.70;7.90;;;33.10;17.50;;;;;;10449975;28;20229;-71
2021/07/23 17:20:31;;;;;;;8.70;7.90;;;33.00;17.80;;;;;;10450231;28;20233;-71
2021/07/23 17:25:36;;;;;;;8.70;8.00;;;33.00;17.70;;;;;;10448568;28;20229;-71
2021/07/23 17:30:39;;;;;;;8.20;7.53;;;33.00;17.80;;;;;;10446666;28;20251;-71
2021/07/23 17:35:43;;;;;;;8.90;8.10;;;33.00;18.10;;;;;;10448325;28;20236;-70
2021/07/23 17:40:48;;;;;;;8.30;7.60;;;32.90;18.30;;;;;;10449550;28;20705;-71
2021/07/23 17:51:15;;;;;;;8.60;7.80;;;33.10;18.80;;;;;;10449147;28;20232;-71
2021/07/23 17:56:19;;;;;;;8.97;8.17;;;33.10;19.70;;;;;;10486583;28;20232;-71
2021/07/23 18:01:22;;;;;;;9.30;8.60;;;33.00;19.70;;;;;;10485342;28;20228;-71
2021/07/23 18:06:26;;;;;;;9.40;8.53;;;32.90;19.70;;;;;;10454651;28;20259;-71
2021/07/23 18:11:31;;;;;;;10.00;8.07;;;32.70;19.70;;;;;;10490438;28;20568;-71
2021/07/23 18:16:34;;;;;;;10.60;8.63;;;32.50;20.30;;;;;;10450244;28;20235;-71
2021/07/23 18:21:37;;;;;;;9.30;8.27;;;32.40;19.90;;;;;;10447991;28;20232;-70
2021/07/23 18:26:42;;;;;;;10.67;8.80;;;32.20;20.00;;;;;;10449351;28;20256;-71
2021/07/23 18:31:45;;;;;;;10.13;9.10;;;32.10;20.20;;;;;;10449436;28;20440;-71
2021/07/23 18:36:48;;;;;;;9.50;8.50;;;31.90;20.50;;;;;;10430306;28;20232;-71
2021/07/23 18:41:53;;;;;;;9.27;8.33;;;31.70;20.80;;;;;;10449424;28;20260;-71
2021/07/23 18:46:56;;;;;;;10.23;8.30;;;31.60;21.30;;;;;;10456052;28;20618;-71
2021/07/23 18:51:59;;;;;;;9.23;8.43;;;31.50;21.80;;;;;;10455414;28;20235;-71
2021/07/23 18:57:06;;;;;;;8.43;7.70;;;31.30;21.80;;;;;;10455631;28;20240;-71
2021/07/23 19:02:10;;;;;;;9.47;8.67;;;31.10;21.70;;;;;;10455389;28;20248;-71
2021/07/23 19:07:17;;;;;;;9.70;8.80;;;30.90;21.60;;;;;;10455673;28;20239;-71
2021/07/23 19:12:23;;;;;;;9.30;8.40;;;30.70;21.50;;;;;;10454542;28;21035;-71
2021/07/23 19:17:27;;;;;;;9.00;8.10;;;30.50;22.10;;;;;;10449282;28;20605;-71
2021/07/23 19:22:30;;;;;;;8.80;7.93;;;30.30;22.10;;;;;;10442933;28;20229;-70
2021/07/23 19:27:38;;;;;;;9.10;8.20;;;30.10;22.30;;;;;;10449221;28;20221;-70
2021/07/23 19:32:41;;;;;;;10.20;9.20;;;29.90;22.60;;;;;;10445597;28;20243;-72
2021/07/23 19:37:44;;;;;;;9.77;8.77;;;29.60;22.70;;;;;;10431867;28;20697;-73
2021/07/23 19:42:49;;;;;;;9.70;8.80;;;29.50;23.00;;;;;;10429473;28;20238;-73
2021/07/23 19:47:54;;;;;;;9.67;8.67;;;29.40;23.50;;;;;;10431527;28;20808;-72
2021/07/23 19:52:57;;;;;;;11.27;8.70;;;29.20;23.40;;;;;;10426674;28;20224;-72
2021/07/23 19:58:02;;;;;;;10.83;9.20;;;29.10;23.50;;;;;;10431430;28;20670;-72
2021/07/23 20:03:05;;;;;;;10.27;9.37;;;29.00;23.80;;;;;;10429022;28;20231;-72
2021/07/23 20:08:09;;;;;;;10.27;9.27;;;28.90;23.80;;;;;;10430322;28;20323;-72
2021/07/23 20:13:13;;;;;;;9.40;8.57;;;28.80;23.90;;;;;;10431336;28;20244;-72
2021/07/23 20:18:16;;;;;;;9.07;8.20;;;28.70;24.30;;;;;;10427430;28;20567;-71
2021/07/23 20:23:20;;;;;;;9.20;8.30;;;28.50;24.00;;;;;;10427058;28;21258;-72
2021/07/23 20:28:24;;;;;;;8.97;8.17;;;28.50;24.30;;;;;;10426945;28;20232;-73
2021/07/23 20:33:27;;;;;;;9.10;8.20;;;28.30;24.50;;;;;;10425508;28;20221;-73
2021/07/23 20:38:31;;;;;;;9.43;8.43;;;28.20;24.30;;;;;;10432945;28;20235;-73
2021/07/23 20:43:35;;;;;;;8.63;7.83;;;28.20;24.40;;;;;;10424460;28;20710;-73
2021/07/23 20:48:39;;;;;;;9.43;8.63;;;28.10;24.90;;;;;;10425244;28;20233;-73
2021/07/23 20:53:42;;;;;;;9.00;8.20;;;28.00;24.80;;;;;;10414245;28;20247;-73
2021/07/23 20:58:46;;;;;;;8.53;7.73;;;27.80;24.70;;;;;;10419079;28;20260;-73
2021/07/23 21:03:50;;;;;;;9.53;8.47;;;27.70;25.00;;;;;;10422560;28;20229;-73
2021/07/23 21:08:53;;;;;;;9.17;8.37;;;27.50;24.90;;;;;;10421905;28;20331;-73
2021/07/23 21:13:57;;;;;;;9.30;8.43;;;27.40;25.00;;;;;;10420325;28;20747;-73
2021/07/23 21:19:01;;;;;;;8.80;7.90;;;27.20;25.40;;;;;;10420714;28;20328;-72
2021/07/23 21:24:05;;;;;;;8.80;8.00;;;27.10;25.40;;;;;;10423712;28;20249;-73
2021/07/23 21:29:10;;;;;;;8.60;7.80;;;26.90;25.50;;;;;;10423660;28;20570;-73
2021/07/23 21:34:14;;;;;;;8.30;7.60;;;26.80;26.00;;;;;;10419608;28;20233;-73
2021/07/23 21:39:17;;;;;;;8.70;7.80;;;26.70;25.80;;;;;;10426325;28;20225;-73
2021/07/23 21:44:22;;;;;;;9.07;8.27;;;26.60;26.00;;;;;;10420361;28;20239;-73
2021/07/23 21:49:25;;;;;;;10.13;9.20;;;26.40;26.20;;;;;;10421085;28;20249;-73
2021/07/23 21:54:29;;;;;;;8.83;8.00;;;26.30;26.10;;;;;;10411481;28;20601;-73
2021/07/23 21:59:34;;;;;;;9.10;8.20;;;26.00;26.70;;;;;;10416922;28;20233;-73
2021/07/23 22:04:37;;;;;;;9.57;8.13;;;25.90;26.80;;;;;;10411856;28;20234;-72
2021/07/23 22:09:41;;;;;;;9.33;8.53;;;25.70;26.80;;;;;;10417655;28;20806;-73
2021/07/23 22:14:46;;;;;;;9.57;8.77;;;25.50;27.00;;;;;;10418082;28;20243;-72
2021/07/23 22:19:49;;;;;;;9.20;8.40;;;25.30;27.60;;;;;;10421662;28;20717;-72
2021/07/23 22:24:54;;;;;;;9.17;8.27;;;25.10;27.30;;;;;;10425576;28;20226;-72
2021/07/23 22:29:58;;;;;;;9.00;8.20;;;25.00;27.80;;;;;;10423443;28;20629;-71
2021/07/23 22:35:01;;;;;;;9.20;8.40;;;24.90;28.20;;;;;;10422496;28;20713;-71
2021/07/23 22:40:05;;;;;;;8.77;7.87;;;24.80;28.10;;;;;;10422031;28;20224;-71
2021/07/23 22:45:11;;;;;;;9.17;8.37;;;24.70;28.40;;;;;;10423870;28;20232;-71
2021/07/23 22:50:14;;;;;;;8.67;7.90;;;24.70;28.50;;;;;;10421714;28;20744;-71
2021/07/23 22:55:17;;;;;;;8.43;7.73;;;24.70;28.50;;;;;;10421442;28;20229;-71
2021/07/23 23:00:22;;;;;;;8.53;7.77;;;24.60;28.40;;;;;;10427352;28;20236;-71
2021/07/23 23:05:25;;;;;;;9.83;8.40;;;24.60;28.40;;;;;;10418696;28;20618;-71
2021/07/23 23:10:32;;;;;;;8.60;7.70;;;24.60;28.40;;;;;;10423325;28;20241;-71
2021/07/23 23:15:37;;;;;;;9.50;8.37;;;24.60;28.50;;;;;;10418982;28;20701;-71
2021/07/23 23:20:40;;;;;;;9.23;8.33;;;24.50;28.40;;;;;;10425734;28;20666;-71
2021/07/23 23:25:43;;;;;;;9.33;8.53;;;24.50;28.40;;;;;;10427936;28;20239;-71
2021/07/23 23:30:48;;;;;;;8.77;7.97;;;24.50;28.40;;;;;;10426525;28;20239;-71
2021/07/23 23:35:51;;;;;;;9.20;8.30;;;24.40;28.50;;;;;;10427875;28;20236;-71
2021/07/23 23:40:56;;;;;;;9.87;8.83;;;24.30;28.20;;;;;;10428604;28;20229;-71
2021/07/23 23:46:01;;;;;;;8.67;7.83;;;24.20;29.40;;;;;;10427068;28;20256;-71
2021/07/23 23:51:04;;;;;;;8.43;7.63;;;24.20;28.80;;;;;;10424275;28;20607;-71
2021/07/23 23:56:10;;;;;;;9.17;8.27;;;24.10;28.50;;;;;;10425837;28;20229;-71
